Time;durP1;ratioP1;P1;durP2;ratioP2;P2;SDS_P1;SDS_P2;PMS_P1;PMS_P2;Temp;Humidity;BMP_temperature;BMP_pressure;BME280_temperature;BME280_humidity;BME280_pressure;Samples;Min_cycle;Max_cycle;Signal;HPM_P1;HPM_P2
2022/06/24 00:02:01;;;;;;;5.68;1.90;;;23.40;58.00;;;;;;5010022;28;20195;-75
2022/06/24 00:04:31;;;;;;;5.18;1.75;;;23.30;58.10;;;;;;5014305;28;20193;-76
2022/06/24 00:07:00;;;;;;;5.57;2.20;;;23.30;58.20;;;;;;5014444;28;20219;-76
2022/06/24 00:09:31;;;;;;;4.68;1.75;;;23.30;58.20;;;;;;5014938;28;20284;-75
2022/06/24 00:12:08;;;;;;;7.22;1.98;;;23.30;58.40;;;;;;5007336;28;20203;-75
2022/06/24 00:14:37;;;;;;;4.55;1.65;;;23.30;58.50;;;;;;5012740;28;20192;-75
2022/06/24 00:17:14;;;;;;;4.03;1.90;;;23.20;58.40;;;;;;5007372;28;20645;-75
2022/06/24 00:19:56;;;;;;;6.32;1.50;;;23.20;58.60;;;;;;5008188;28;20212;-75
2022/06/24 00:22:26;;;;;;;4.80;1.92;;;23.20;58.90;;;;;;4994504;28;20761;-75
2022/06/24 00:25:11;;;;;;;5.22;1.70;;;23.10;58.90;;;;;;4992626;28;20193;-75
2022/06/24 00:27:40;;;;;;;5.55;2.33;;;23.10;59.10;;;;;;4996176;28;20220;-75
2022/06/24 00:30:11;;;;;;;4.72;1.58;;;23.10;59.30;;;;;;4990803;28;20197;-75
2022/06/24 00:32:39;;;;;;;6.28;1.90;;;23.10;59.50;;;;;;4995807;28;20198;-75
2022/06/24 00:35:14;;;;;;;3.58;2.00;;;23.00;59.60;;;;;;4996650;28;20193;-75
2022/06/24 00:37:43;;;;;;;5.35;2.13;;;23.00;59.80;;;;;;5001631;28;20200;-76
2022/06/24 00:40:28;;;;;;;7.55;2.00;;;23.00;59.90;;;;;;4991403;28;20201;-75
2022/06/24 00:42:57;;;;;;;4.03;1.55;;;22.90;60.00;;;;;;4993709;28;20205;-76
2022/06/24 00:45:36;;;;;;;3.55;1.88;;;22.90;60.00;;;;;;4983655;28;20204;-75
2022/06/24 00:48:09;;;;;;;4.05;1.48;;;22.80;60.10;;;;;;4997897;28;20220;-75
2022/06/24 00:50:41;;;;;;;3.78;1.80;;;22.90;60.30;;;;;;4994594;28;20672;-75
2022/06/24 00:53:13;;;;;;;3.70;1.50;;;22.80;60.40;;;;;;5005400;28;20246;-75
2022/06/24 00:55:43;;;;;;;5.20;1.98;;;22.80;60.40;;;;;;4999280;28;20192;-75
2022/06/24 00:58:15;;;;;;;3.78;1.48;;;22.80;60.60;;;;;;4995065;28;20184;-75
2022/06/24 01:00:45;;;;;;;5.43;1.80;;;22.80;60.70;;;;;;4988574;28;20184;-75
2022/06/24 01:03:15;;;;;;;6.78;1.90;;;22.80;61.40;;;;;;4993549;28;20634;-75
2022/06/24 01:05:44;;;;;;;4.72;1.75;;;22.70;61.10;;;;;;4995893;28;20189;-76
2022/06/24 01:08:14;;;;;;;2.90;1.73;;;22.70;61.20;;;;;;4998681;28;20228;-75
2022/06/24 01:10:49;;;;;;;3.08;1.60;;;22.70;61.20;;;;;;4996124;28;20193;-74
2022/06/24 01:13:19;;;;;;;2.35;1.42;;;22.70;61.20;;;;;;4990050;28;20195;-76
2022/06/24 01:15:47;;;;;;;7.57;1.80;;;22.70;61.20;;;;;;4998262;28;20193;-76
2022/06/24 01:18:16;;;;;;;4.07;1.40;;;22.70;61.30;;;;;;4989101;28;20205;-75
2022/06/24 01:20:44;;;;;;;3.70;1.95;;;22.70;61.30;;;;;;4991780;28;20582;-76
2022/06/24 01:23:22;;;;;;;7.45;1.90;;;22.70;61.30;;;;;;5008268;28;20201;-75
2022/06/24 01:25:50;;;;;;;2.45;1.27;;;22.60;61.30;;;;;;5005025;28;20181;-75
2022/06/24 01:28:19;;;;;;;4.15;1.95;;;22.60;61.30;;;;;;5007818;28;20226;-75
2022/06/24 01:30:47;;;;;;;4.75;1.65;;;22.60;61.70;;;;;;5013135;28;20728;-76
2022/06/24 01:33:16;;;;;;;2.88;1.73;;;22.50;61.70;;;;;;5017436;28;20245;-75
2022/06/24 01:35:44;;;;;;;6.22;1.60;;;22.50;62.00;;;;;;5019210;28;20215;-75
2022/06/24 01:38:14;;;;;;;3.63;1.70;;;22.50;62.20;;;;;;5010610;28;20204;-75
2022/06/24 01:40:42;;;;;;;3.25;1.80;;;22.50;62.40;;;;;;5020480;28;20203;-75
2022/06/24 01:43:10;;;;;;;3.33;1.50;;;22.50;62.50;;;;;;5018716;28;20697;-75
2022/06/24 01:45:39;;;;;;;5.00;1.90;;;22.40;62.40;;;;;;5009311;28;20595;-75
2022/06/24 01:48:08;;;;;;;6.72;1.73;;;22.40;62.50;;;;;;5008288;28;20208;-75
2022/06/24 01:50:36;;;;;;;2.88;1.67;;;22.40;62.80;;;;;;5017818;28;20207;-75
2022/06/24 01:53:11;;;;;;;3.08;1.60;;;22.40;62.90;;;;;;5013372;28;20191;-75
2022/06/24 01:55:41;;;;;;;4.30;1.70;;;22.40;62.90;;;;;;5017755;28;20215;-75
2022/06/24 01:58:10;;;;;;;2.25;1.55;;;22.30;63.00;;;;;;5015879;28;20203;-75
2022/06/24 02:00:38;;;;;;;5.20;1.52;;;22.30;63.20;;;;;;5012932;28;20196;-74
2022/06/24 02:03:07;;;;;;;3.15;1.63;;;22.30;63.30;;;;;;5009641;28;20196;-75
2022/06/24 02:05:36;;;;;;;2.40;1.45;;;22.30;64.20;;;;;;5004929;28;20282;-75
2022/06/24 02:08:05;;;;;;;3.37;1.83;;;22.30;63.40;;;;;;5012087;28;20616;-76
2022/06/24 02:13:32;;;;;;;5.13;1.70;;;22.20;63.70;;;;;;4977794;28;20200;-75
2022/06/24 02:16:04;;;;;;;5.00;1.80;;;22.20;63.80;;;;;;5018323;28;20195;-75
2022/06/24 02:18:33;;;;;;;4.27;1.60;;;22.20;63.80;;;;;;5011669;28;20187;-75
2022/06/24 02:21:02;;;;;;;6.50;2.10;;;22.20;63.80;;;;;;5022222;28;20228;-75
2022/06/24 02:23:31;;;;;;;6.40;1.93;;;22.10;64.00;;;;;;5012287;28;20196;-75
2022/06/24 02:25:59;;;;;;;9.70;1.90;;;22.10;64.30;;;;;;5018831;28;20674;-75
2022/06/24 02:28:28;;;;;;;5.10;2.50;;;22.10;64.40;;;;;;5006510;28;20232;-75
2022/06/24 02:31:00;;;;;;;6.25;2.42;;;22.10;64.50;;;;;;5013207;28;20196;-75
2022/06/24 02:33:29;;;;;;;9.13;2.30;;;22.10;64.70;;;;;;5009822;28;20283;-75
2022/06/24 02:35:57;;;;;;;8.97;2.77;;;22.00;64.70;;;;;;5013266;28;20190;-76
2022/06/24 02:38:26;;;;;;;9.57;2.17;;;22.00;65.00;;;;;;5017057;28;20563;-75
2022/06/24 02:40:54;;;;;;;5.78;2.05;;;22.00;65.20;;;;;;5013094;28;20807;-76
2022/06/24 02:43:24;;;;;;;3.23;1.83;;;22.00;65.20;;;;;;5010290;28;20741;-74
2022/06/24 02:45:54;;;;;;;2.70;1.70;;;22.00;65.20;;;;;;5016619;28;20195;-75
2022/06/24 02:48:25;;;;;;;3.22;1.90;;;22.00;65.20;;;;;;5013722;28;20310;-75
2022/06/24 02:50:54;;;;;;;4.93;1.63;;;22.00;65.30;;;;;;5012117;28;20200;-75
2022/06/24 02:53:24;;;;;;;10.57;1.83;;;22.00;65.20;;;;;;5013266;28;20558;-75
2022/06/24 02:55:54;;;;;;;3.10;1.80;;;22.00;65.30;;;;;;5019430;28;20198;-75
2022/06/24 02:58:22;;;;;;;6.30;1.47;;;22.00;65.50;;;;;;5016357;28;20579;-76
2022/06/24 03:00:52;;;;;;;5.07;1.90;;;22.00;65.50;;;;;;5014513;28;20314;-75
2022/06/24 03:03:22;;;;;;;3.73;1.50;;;22.00;65.50;;;;;;5008786;28;20655;-75
2022/06/24 03:05:52;;;;;;;3.72;1.52;;;22.00;65.30;;;;;;5012648;28;20196;-75
2022/06/24 03:08:22;;;;;;;3.15;1.40;;;22.10;65.40;;;;;;5019567;28;22195;-75
2022/06/24 03:10:51;;;;;;;3.20;1.40;;;22.00;65.30;;;;;;5017018;28;20196;-78
2022/06/24 03:13:20;;;;;;;4.70;2.17;;;22.10;65.20;;;;;;5015549;28;20580;-77
2022/06/24 03:15:48;;;;;;;3.28;1.77;;;22.10;65.00;;;;;;5006658;28;20191;-77
2022/06/24 03:18:17;;;;;;;4.10;1.92;;;22.10;65.00;;;;;;5009073;28;20196;-77
2022/06/24 03:20:46;;;;;;;7.38;2.20;;;22.10;65.80;;;;;;5007622;28;20255;-76
2022/06/24 03:23:17;;;;;;;6.68;2.10;;;22.10;65.00;;;;;;5006208;28;20188;-76
2022/06/24 03:25:46;;;;;;;8.68;2.25;;;22.20;65.20;;;;;;5012231;28;20183;-76
2022/06/24 03:28:15;;;;;;;7.25;2.50;;;22.20;65.20;;;;;;5015330;28;20215;-76
2022/06/24 03:30:43;;;;;;;5.10;2.43;;;22.20;65.20;;;;;;5002449;28;20938;-75
2022/06/24 03:33:11;;;;;;;6.70;2.60;;;22.20;65.20;;;;;;5008464;28;20191;-77
2022/06/24 03:35:40;;;;;;;10.73;2.45;;;22.20;65.10;;;;;;5005520;28;20188;-75
2022/06/24 03:38:08;;;;;;;5.43;2.30;;;22.20;65.00;;;;;;5004287;28;20195;-76
2022/06/24 03:40:38;;;;;;;4.82;2.17;;;22.20;65.00;;;;;;5022038;28;20204;-76
2022/06/24 03:43:06;;;;;;;6.88;2.13;;;22.20;64.90;;;;;;5020670;28;20191;-76
2022/06/24 03:45:35;;;;;;;5.60;2.53;;;22.20;64.90;;;;;;5015458;28;20224;-77
2022/06/24 03:48:03;;;;;;;5.43;2.30;;;22.20;65.00;;;;;;5015997;28;20216;-75
2022/06/24 03:50:32;;;;;;;7.43;2.43;;;22.20;65.00;;;;;;5017425;28;20201;-77
2022/06/24 03:53:00;;;;;;;5.57;2.10;;;22.20;64.90;;;;;;5012626;28;20191;-76
2022/06/24 03:55:28;;;;;;;5.50;2.00;;;22.30;65.00;;;;;;5013442;28;20196;-76
2022/06/24 03:57:58;;;;;;;5.47;2.30;;;22.30;65.20;;;;;;5011281;28;20599;-76
2022/06/24 04:00:26;;;;;;;4.00;2.38;;;22.30;65.30;;;;;;5025776;28;20411;-75
2022/06/24 04:02:55;;;;;;;5.93;2.55;;;22.30;66.10;;;;;;5014002;28;20195;-75
2022/06/24 04:05:23;;;;;;;4.90;2.35;;;22.30;65.30;;;;;;5012192;28;20193;-75
2022/06/24 04:07:51;;;;;;;8.50;2.30;;;22.30;65.50;;;;;;5011959;28;20196;-76
2022/06/24 04:10:20;;;;;;;3.55;2.20;;;22.30;65.60;;;;;;5011969;28;20207;-75
2022/06/24 04:12:48;;;;;;;5.53;2.92;;;22.30;65.50;;;;;;5009949;28;20207;-75
2022/06/24 04:15:21;;;;;;;5.68;2.05;;;22.30;65.50;;;;;;5018270;28;20877;-76
2022/06/24 04:17:50;;;;;;;6.78;1.98;;;22.40;65.50;;;;;;5012357;28;20199;-75
2022/06/24 04:20:19;;;;;;;6.22;2.20;;;22.40;65.50;;;;;;5021382;28;20202;-75
2022/06/24 04:22:48;;;;;;;3.17;1.90;;;22.40;65.50;;;;;;5018923;28;20199;-76
2022/06/24 04:25:17;;;;;;;6.53;2.15;;;22.40;65.70;;;;;;5026439;28;20250;-76
2022/06/24 04:27:45;;;;;;;6.15;2.03;;;22.40;65.70;;;;;;5022124;28;20212;-77
2022/06/24 04:30:14;;;;;;;6.15;1.95;;;22.50;65.60;;;;;;5028774;28;20215;-75
2022/06/24 04:32:44;;;;;;;4.03;1.70;;;22.50;65.60;;;;;;5024342;28;20246;-79
2022/06/24 04:35:12;;;;;;;7.07;1.92;;;22.50;65.60;;;;;;5010527;28;20614;-76
2022/06/24 04:37:42;;;;;;;4.63;1.60;;;22.50;65.40;;;;;;5013195;28;20192;-75
2022/06/24 04:40:13;;;;;;;10.82;1.70;;;22.50;65.40;;;;;;5011956;28;20774;-78
2022/06/24 04:42:42;;;;;;;11.77;1.90;;;22.60;65.50;;;;;;5023180;28;20194;-76
2022/06/24 04:45:11;;;;;;;5.90;1.92;;;22.60;65.50;;;;;;5019110;28;20193;-78
2022/06/24 04:47:39;;;;;;;7.15;2.10;;;22.70;65.50;;;;;;5012054;28;20195;-75
2022/06/24 04:50:10;;;;;;;3.13;1.98;;;22.70;65.50;;;;;;5027128;28;20227;-77
2022/06/24 04:52:40;;;;;;;7.65;2.10;;;22.70;65.40;;;;;;5018176;28;20983;-77
2022/06/24 04:55:09;;;;;;;4.03;1.92;;;22.80;65.50;;;;;;5022311;28;20700;-77
2022/06/24 04:57:38;;;;;;;6.53;2.13;;;22.80;65.60;;;;;;5018006;28;20199;-77
2022/06/24 05:00:09;;;;;;;7.50;2.22;;;22.80;65.50;;;;;;5012828;28;20254;-75
2022/06/24 05:02:38;;;;;;;4.78;2.03;;;22.90;65.60;;;;;;5021677;28;20230;-76
2022/06/24 05:05:07;;;;;;;6.18;2.55;;;23.00;65.60;;;;;;5024313;28;20203;-76
2022/06/24 05:07:37;;;;;;;9.45;2.47;;;23.00;65.60;;;;;;5016152;28;20653;-76
2022/06/24 05:10:07;;;;;;;6.50;1.60;;;23.10;65.50;;;;;;5016951;28;20247;-77
2022/06/24 05:12:35;;;;;;;4.18;2.03;;;23.10;65.40;;;;;;5019112;28;20204;-75
2022/06/24 05:15:04;;;;;;;5.07;2.00;;;23.10;65.40;;;;;;5016060;28;20193;-76
2022/06/24 05:17:33;;;;;;;5.57;1.55;;;23.20;65.40;;;;;;5016979;28;20209;-76
2022/06/24 05:20:01;;;;;;;2.67;1.50;;;23.30;65.70;;;;;;5018706;28;20194;-78
2022/06/24 05:22:30;;;;;;;4.15;2.08;;;23.30;65.50;;;;;;5017200;28;20231;-75
2022/06/24 05:25:01;;;;;;;7.10;1.95;;;23.40;65.60;;;;;;5025394;28;20284;-75
2022/06/24 05:27:29;;;;;;;5.47;1.92;;;23.40;65.50;;;;;;5019077;28;20202;-75
2022/06/24 05:29:58;;;;;;;3.10;1.70;;;23.50;65.50;;;;;;5023114;28;20745;-75
2022/06/24 05:32:26;;;;;;;5.45;1.77;;;23.50;65.30;;;;;;5016634;28;20451;-76
2022/06/24 05:34:56;;;;;;;4.80;2.00;;;23.60;65.70;;;;;;5019302;28;20223;-75
2022/06/24 05:37:25;;;;;;;4.43;1.70;;;23.70;65.60;;;;;;5014364;28;20662;-75
2022/06/24 05:39:53;;;;;;;3.63;1.77;;;23.80;65.50;;;;;;5022327;28;20191;-74
2022/06/24 05:42:23;;;;;;;3.72;1.55;;;23.80;65.30;;;;;;5023183;28;20196;-76
2022/06/24 05:44:51;;;;;;;5.75;1.90;;;23.90;65.20;;;;;;5021249;28;21603;-76
2022/06/24 05:47:19;;;;;;;2.50;1.40;;;24.00;65.00;;;;;;5023450;28;20196;-75
2022/06/24 05:49:48;;;;;;;3.13;1.33;;;24.10;64.70;;;;;;5024050;28;20258;-76
2022/06/24 05:55:02;;;;;;;3.22;1.60;;;24.10;64.40;;;;;;5024954;28;20195;-76
2022/06/24 05:55:04;;;;;;;2.60;1.30;;;24.20;64.20;;;;;;5017639;28;21034;-75
2022/06/24 05:57:34;;;;;;;3.58;1.60;;;24.30;63.80;;;;;;5019118;28;20200;-76
2022/06/24 06:00:02;;;;;;;4.57;2.00;;;24.40;63.50;;;;;;5020031;28;20199;-74
2022/06/24 06:02:31;;;;;;;5.68;1.75;;;24.50;63.40;;;;;;5016664;28;20198;-77
2022/06/24 06:05:00;;;;;;;5.53;1.58;;;24.50;63.20;;;;;;5012782;28;20657;-76
2022/06/24 06:07:28;;;;;;;3.45;1.50;;;24.60;62.90;;;;;;5020331;28;20199;-76
2022/06/24 06:09:57;;;;;;;1.92;1.30;;;24.60;62.50;;;;;;5038565;28;20856;-77
2022/06/24 06:12:26;;;;;;;3.55;1.70;;;24.70;62.60;;;;;;5016279;28;20858;-76
2022/06/24 06:14:56;;;;;;;2.60;1.15;;;24.80;62.20;;;;;;5022972;28;20192;-75
2022/06/24 06:17:24;;;;;;;3.75;1.20;;;24.80;62.00;;;;;;5013667;28;20231;-76
2022/06/24 06:19:52;;;;;;;2.67;1.48;;;24.90;61.40;;;;;;5018210;28;20196;-76
2022/06/24 06:22:21;;;;;;;2.40;1.20;;;25.00;60.80;;;;;;5003906;28;20236;-74
2022/06/24 06:24:49;;;;;;;2.95;1.55;;;25.10;60.30;;;;;;5014553;28;20206;-74
2022/06/24 06:27:17;;;;;;;6.75;2.30;;;25.10;60.10;;;;;;5022545;28;20200;-76
2022/06/24 06:29:46;;;;;;;8.48;2.30;;;25.20;60.20;;;;;;5022770;28;20226;-75
2022/06/24 06:32:16;;;;;;;2.60;1.40;;;25.30;60.10;;;;;;5018946;28;20202;-75
2022/06/24 06:34:44;;;;;;;8.10;1.75;;;25.40;59.80;;;;;;5018104;28;20200;-75
2022/06/24 06:37:13;;;;;;;8.10;1.50;;;25.40;59.50;;;;;;5012441;28;20196;-76
2022/06/24 06:39:41;;;;;;;2.55;1.30;;;25.50;58.90;;;;;;5022562;28;20196;-75
2022/06/24 06:42:09;;;;;;;4.65;2.10;;;25.50;58.40;;;;;;5035252;28;20207;-79
2022/06/24 06:44:38;;;;;;;4.75;1.65;;;25.60;58.30;;;;;;5026796;28;20195;-78
2022/06/24 06:47:06;;;;;;;5.25;1.85;;;25.60;58.10;;;;;;5017180;28;20212;-74
2022/06/24 06:49:36;;;;;;;10.77;1.88;;;25.60;58.10;;;;;;5020527;28;20191;-73
2022/06/24 06:52:05;;;;;;;4.78;1.50;;;25.80;58.30;;;;;;5014245;28;20209;-73
2022/06/24 06:54:34;;;;;;;5.85;1.45;;;25.80;58.30;;;;;;5019730;28;20865;-79
2022/06/24 06:57:02;;;;;;;6.20;1.45;;;25.80;57.70;;;;;;5020515;28;20200;-75
2022/06/24 06:59:30;;;;;;;3.83;1.38;;;25.80;57.30;;;;;;5008311;28;20193;-73
2022/06/24 07:01:59;;;;;;;3.53;1.20;;;25.90;57.10;;;;;;5010049;28;20200;-74
2022/06/24 07:04:27;;;;;;;4.63;1.38;;;25.90;56.90;;;;;;5018607;28;20228;-75
2022/06/24 07:06:57;;;;;;;9.32;1.83;;;26.00;57.10;;;;;;5017382;28;20215;-75
2022/06/24 07:09:25;;;;;;;7.10;1.85;;;26.10;57.10;;;;;;5021187;28;20242;-74
2022/06/24 07:11:54;;;;;;;2.72;1.40;;;26.10;57.00;;;;;;5018891;28;20215;-74
2022/06/24 07:14:22;;;;;;;6.53;2.00;;;26.20;57.00;;;;;;5010190;28;20196;-74
2022/06/24 07:16:50;;;;;;;4.13;1.45;;;26.20;57.00;;;;;;5021134;28;20294;-74
2022/06/24 07:19:19;;;;;;;4.78;1.55;;;26.30;56.60;;;;;;5018091;28;20195;-75
2022/06/24 07:21:47;;;;;;;2.63;1.35;;;26.30;56.60;;;;;;5011902;28;20663;-74
2022/06/24 07:24:17;;;;;;;4.57;1.30;;;26.40;56.40;;;;;;5020680;28;20198;-75
2022/06/24 07:26:45;;;;;;;2.08;1.30;;;26.40;56.50;;;;;;5023013;28;20284;-75
2022/06/24 07:29:13;;;;;;;3.88;1.55;;;26.50;56.50;;;;;;5023148;28;20536;-77
2022/06/24 07:31:42;;;;;;;4.43;1.45;;;26.50;56.30;;;;;;5023384;28;20268;-76
2022/06/24 07:34:10;;;;;;;6.82;1.38;;;26.60;55.90;;;;;;5023436;28;20223;-76
2022/06/24 07:36:39;;;;;;;3.97;1.50;;;26.60;56.00;;;;;;5019413;28;20212;-75
2022/06/24 07:39:07;;;;;;;4.90;1.35;;;26.70;56.20;;;;;;5033141;28;20207;-74
2022/06/24 07:41:37;;;;;;;3.25;1.20;;;26.70;55.60;;;;;;5029674;28;20198;-74
2022/06/24 07:44:05;;;;;;;3.75;1.65;;;26.70;55.00;;;;;;5029498;28;20652;-75
2022/06/24 07:46:34;;;;;;;1.65;0.85;;;26.80;55.10;;;;;;5026881;28;20194;-75
2022/06/24 07:49:02;;;;;;;2.35;1.08;;;26.80;55.10;;;;;;5023907;28;20215;-75
2022/06/24 07:51:31;;;;;;;4.20;1.13;;;26.90;54.90;;;;;;5027676;28;20246;-76
2022/06/24 07:53:59;;;;;;;1.90;1.08;;;26.90;54.80;;;;;;5011589;28;20205;-76
2022/06/24 07:59:14;;;;;;;5.15;1.73;;;27.00;54.20;;;;;;5029926;28;20187;-75
2022/06/24 08:01:43;;;;;;;5.28;1.10;;;27.00;54.20;;;;;;5013478;28;20184;-74
2022/06/24 08:04:12;;;;;;;2.22;1.17;;;27.10;54.40;;;;;;5014747;28;20873;-76
2022/06/24 08:06:46;;;;;;;3.17;1.05;;;27.20;54.50;;;;;;5026916;28;20200;-76
2022/06/24 08:09:14;;;;;;;1.88;1.05;;;27.20;54.20;;;;;;5029843;28;20187;-75
2022/06/24 08:11:43;;;;;;;5.35;1.27;;;27.30;54.10;;;;;;5028223;28;20227;-75
2022/06/24 08:14:12;;;;;;;5.40;1.10;;;27.30;53.80;;;;;;5013503;28;20191;-75
2022/06/24 08:16:44;;;;;;;3.22;1.02;;;27.30;53.70;;;;;;5022822;28;20191;-75
2022/06/24 08:19:15;;;;;;;6.28;1.42;;;27.40;53.40;;;;;;5017350;28;21099;-76
2022/06/24 08:21:44;;;;;;;2.47;1.20;;;27.40;53.50;;;;;;5013466;28;20235;-76
2022/06/24 08:24:12;;;;;;;3.10;1.33;;;27.40;53.20;;;;;;5018014;28;21604;-75
2022/06/24 08:26:41;;;;;;;6.72;1.65;;;27.50;52.80;;;;;;5015334;28;20196;-75
2022/06/24 08:29:11;;;;;;;4.00;1.30;;;27.50;53.10;;;;;;5018835;28;20192;-76
2022/06/24 08:31:39;;;;;;;6.18;1.55;;;27.50;53.20;;;;;;5036778;28;20314;-76
2022/06/24 08:34:09;;;;;;;3.10;1.58;;;27.60;52.90;;;;;;5020980;28;20205;-75
2022/06/24 08:36:38;;;;;;;5.50;1.20;;;27.60;52.30;;;;;;5017439;28;20198;-75
2022/06/24 08:39:09;;;;;;;2.47;1.20;;;27.70;52.00;;;;;;5021904;28;20556;-75
2022/06/24 08:41:41;;;;;;;3.90;1.70;;;27.70;52.30;;;;;;5016212;28;20198;-78
2022/06/24 08:44:13;;;;;;;2.70;1.38;;;27.70;52.30;;;;;;5018505;28;20206;-75
2022/06/24 08:46:41;;;;;;;2.42;1.25;;;27.80;51.80;;;;;;5012423;28;20624;-75
2022/06/24 08:49:11;;;;;;;5.82;1.20;;;27.80;51.80;;;;;;5025075;28;20200;-75
2022/06/24 08:51:42;;;;;;;3.63;1.20;;;27.80;51.50;;;;;;5016784;28;20935;-75
2022/06/24 08:54:13;;;;;;;2.40;1.15;;;27.90;51.30;;;;;;5016409;28;20193;-75
2022/06/24 08:56:53;;;;;;;5.93;1.70;;;27.90;51.10;;;;;;5024384;28;20203;-75
2022/06/24 08:59:22;;;;;;;5.25;1.10;;;27.90;50.70;;;;;;5006940;28;20192;-76
2022/06/24 09:01:50;;;;;;;4.57;1.30;;;28.00;50.50;;;;;;5035951;28;20200;-75
2022/06/24 09:04:23;;;;;;;3.40;1.10;;;28.00;50.60;;;;;;5022211;28;20245;-76
2022/06/24 09:06:51;;;;;;;1.50;0.90;;;28.10;50.40;;;;;;5022065;28;20274;-75
2022/06/24 09:09:25;;;;;;;4.00;1.10;;;28.10;50.80;;;;;;5018339;28;20622;-75
2022/06/24 09:11:56;;;;;;;2.85;1.13;;;28.20;50.20;;;;;;5014800;28;20764;-76
2022/06/24 09:14:42;;;;;;;2.72;1.13;;;28.20;50.00;;;;;;5008827;28;20200;-75
2022/06/24 09:17:11;;;;;;;4.97;1.33;;;28.30;50.00;;;;;;5031682;28;20191;-78
2022/06/24 09:19:41;;;;;;;5.45;1.05;;;28.30;49.80;;;;;;5028146;28;20237;-79
2022/06/24 09:22:10;;;;;;;2.60;0.90;;;28.30;49.10;;;;;;5016200;28;20740;-74
2022/06/24 09:24:47;;;;;;;1.23;1.08;;;28.40;49.20;;;;;;5008066;28;20196;-75
2022/06/24 09:27:16;;;;;;;3.13;1.10;;;28.40;49.40;;;;;;5030749;28;20595;-76
2022/06/24 09:29:49;;;;;;;3.90;1.10;;;28.50;49.30;;;;;;5012704;28;20307;-77
2022/06/24 09:32:18;;;;;;;6.60;1.20;;;28.60;49.30;;;;;;5011801;28;20228;-77
2022/06/24 09:35:02;;;;;;;1.63;1.05;;;28.60;49.20;;;;;;5019354;28;20205;-76
2022/06/24 09:37:42;;;;;;;3.97;1.20;;;28.60;49.10;;;;;;5018615;28;20187;-77
2022/06/24 09:40:25;;;;;;;3.40;1.30;;;28.60;49.30;;;;;;5010452;28;20227;-75
2022/06/24 09:42:54;;;;;;;1.77;1.00;;;28.60;48.80;;;;;;5012148;28;20713;-76
2022/06/24 09:45:23;;;;;;;5.35;1.20;;;28.60;48.70;;;;;;5026237;28;20194;-75
2022/06/24 09:47:52;;;;;;;1.20;1.02;;;28.60;48.80;;;;;;5039406;28;20203;-75
2022/06/24 09:50:22;;;;;;;1.45;1.10;;;28.60;48.40;;;;;;5020701;28;20662;-75
2022/06/24 09:52:53;;;;;;;2.47;1.20;;;28.80;48.40;;;;;;5016365;28;20222;-75
2022/06/24 09:55:24;;;;;;;2.97;1.02;;;28.80;48.30;;;;;;5013119;28;20211;-77
2022/06/24 09:57:54;;;;;;;5.20;1.45;;;28.90;48.40;;;;;;5031004;28;20198;-76
2022/06/24 10:03:11;;;;;;;2.97;0.88;;;29.10;48.90;;;;;;5017328;28;20202;-76
2022/06/24 10:05:43;;;;;;;1.50;1.20;;;29.20;48.60;;;;;;5008963;28;20607;-77
2022/06/24 10:08:13;;;;;;;2.40;1.30;;;29.30;48.10;;;;;;5031575;28;20198;-75
2022/06/24 10:10:46;;;;;;;2.70;0.82;;;29.30;47.80;;;;;;5032177;28;20736;-75
2022/06/24 10:13:27;;;;;;;2.65;0.80;;;29.40;47.80;;;;;;5011597;28;20208;-76
2022/06/24 10:15:57;;;;;;;2.03;1.15;;;29.50;47.80;;;;;;5024207;28;20187;-76
2022/06/24 10:18:28;;;;;;;7.43;1.15;;;29.50;46.20;;;;;;5029831;28;20249;-78
2022/06/24 10:21:01;;;;;;;3.50;1.08;;;29.60;46.60;;;;;;5032188;28;20334;-76
2022/06/24 10:23:40;;;;;;;3.72;1.25;;;29.60;46.00;;;;;;5010029;28;20207;-77
2022/06/24 10:26:14;;;;;;;4.00;1.15;;;29.60;45.80;;;;;;5027233;28;20213;-76
2022/06/24 10:29:19;;;;;;;5.13;1.25;;;29.60;46.60;;;;;;5031964;28;20685;-76
2022/06/24 10:32:09;;;;;;;7.00;1.25;;;29.70;46.60;;;;;;5033825;28;20601;-75
2022/06/24 10:34:43;;;;;;;1.98;1.08;;;29.70;46.80;;;;;;5011357;28;20198;-75
2022/06/24 10:37:29;;;;;;;1.45;1.15;;;29.80;46.30;;;;;;5020378;28;20199;-75
2022/06/24 10:40:00;;;;;;;1.40;0.93;;;29.90;46.40;;;;;;5033690;28;20199;-78
2022/06/24 10:42:30;;;;;;;4.78;0.93;;;29.90;45.90;;;;;;5013476;28;20635;-77
2022/06/24 10:45:05;;;;;;;2.92;1.20;;;30.00;45.80;;;;;;5021212;28;20273;-77
2022/06/24 10:47:41;;;;;;;3.55;1.20;;;30.00;46.10;;;;;;5020973;28;20196;-77
2022/06/24 10:50:21;;;;;;;1.30;0.90;;;30.10;46.00;;;;;;5027370;28;20191;-76
2022/06/24 10:53:06;;;;;;;3.63;0.90;;;30.10;45.50;;;;;;5024654;28;20211;-75
2022/06/24 10:55:43;;;;;;;1.13;0.88;;;30.20;45.30;;;;;;5009560;28;20191;-75
2022/06/24 10:58:17;;;;;;;2.45;1.08;;;30.20;45.50;;;;;;5018231;28;20222;-75
2022/06/24 11:00:54;;;;;;;3.13;1.00;;;30.30;45.40;;;;;;5024650;28;20693;-75
2022/06/24 11:03:27;;;;;;;1.27;1.00;;;30.40;45.60;;;;;;5005534;28;20207;-75
2022/06/24 11:05:56;;;;;;;3.95;0.98;;;30.40;45.60;;;;;;5008682;28;20193;-76
2022/06/24 11:08:27;;;;;;;2.28;1.15;;;30.40;45.30;;;;;;5005653;28;20208;-75
2022/06/24 11:10:56;;;;;;;7.07;1.10;;;30.40;45.40;;;;;;5022328;28;20795;-75
2022/06/24 11:13:25;;;;;;;2.25;1.10;;;30.50;44.80;;;;;;5020277;28;20230;-75
2022/06/24 11:15:56;;;;;;;3.65;1.00;;;30.50;44.70;;;;;;5019623;28;20873;-75
2022/06/24 11:18:26;;;;;;;4.00;1.10;;;30.50;44.70;;;;;;5028799;28;20203;-75
2022/06/24 11:20:56;;;;;;;1.70;1.10;;;30.60;45.00;;;;;;5013776;28;20235;-75
2022/06/24 11:23:29;;;;;;;3.67;1.10;;;30.60;45.20;;;;;;5022508;28;20207;-76
2022/06/24 11:26:01;;;;;;;3.65;1.10;;;30.70;44.80;;;;;;5020501;28;20196;-78
2022/06/24 11:28:32;;;;;;;1.67;0.95;;;30.70;44.60;;;;;;5012128;28;20191;-76
2022/06/24 11:31:16;;;;;;;1.58;1.10;;;30.70;44.40;;;;;;5017228;28;20273;-76
2022/06/24 11:33:46;;;;;;;2.58;1.38;;;30.80;44.30;;;;;;5029889;28;20222;-76
2022/06/24 11:36:15;;;;;;;3.83;1.10;;;30.80;44.20;;;;;;5004445;28;20670;-75
2022/06/24 11:38:53;;;;;;;1.52;1.00;;;30.90;44.00;;;;;;5010931;28;20188;-76
2022/06/24 11:41:28;;;;;;;1.83;0.85;;;30.90;44.50;;;;;;5010622;28;20180;-75
2022/06/24 11:44:17;;;;;;;1.48;0.95;;;31.00;44.90;;;;;;5016198;28;20263;-76
2022/06/24 11:46:54;;;;;;;2.65;0.90;;;31.10;45.10;;;;;;5011184;28;20184;-74
2022/06/24 11:49:23;;;;;;;1.50;1.08;;;31.20;45.00;;;;;;5010351;28;20207;-75
2022/06/24 11:51:51;;;;;;;3.67;0.90;;;31.20;45.10;;;;;;5008458;28;20203;-75
2022/06/24 11:54:26;;;;;;;1.30;1.00;;;31.20;44.90;;;;;;5021675;28;20224;-75
2022/06/24 11:56:55;;;;;;;2.08;0.90;;;31.20;44.80;;;;;;5014083;28;20274;-76
2022/06/24 11:59:26;;;;;;;2.10;1.10;;;31.20;43.90;;;;;;5020435;28;20184;-76
2022/06/24 12:01:55;;;;;;;3.08;0.93;;;31.20;44.30;;;;;;5013727;28;20271;-75
2022/06/24 12:04:26;;;;;;;3.95;1.35;;;31.30;44.40;;;;;;5018494;28;20204;-75
2022/06/24 12:07:05;;;;;;;2.05;1.00;;;31.20;44.30;;;;;;5007939;28;20214;-76
2022/06/24 12:09:36;;;;;;;3.33;1.02;;;31.20;44.10;;;;;;5011648;28;20343;-75
2022/06/24 12:12:12;;;;;;;4.93;1.00;;;31.20;43.80;;;;;;5005869;28;20188;-75
2022/06/24 12:14:40;;;;;;;2.60;1.00;;;31.20;43.90;;;;;;5018180;28;20219;-75
2022/06/24 12:17:10;;;;;;;2.97;1.00;;;31.20;44.10;;;;;;5008865;28;20191;-75
2022/06/24 12:19:58;;;;;;;1.60;0.98;;;31.20;44.10;;;;;;5009419;28;20375;-75
2022/06/24 12:22:27;;;;;;;2.20;1.20;;;31.40;43.90;;;;;;5019845;28;20265;-75
2022/06/24 12:25:05;;;;;;;3.90;1.00;;;31.50;43.90;;;;;;5031325;28;20213;-73
2022/06/24 12:27:35;;;;;;;1.38;1.00;;;31.60;43.80;;;;;;5021481;28;20191;-75
2022/06/24 12:30:04;;;;;;;4.10;1.33;;;31.70;43.70;;;;;;5022109;28;20291;-75
2022/06/24 12:32:55;;;;;;;4.25;1.10;;;31.60;42.50;;;;;;5016693;28;20211;-74
2022/06/24 12:35:33;;;;;;;2.67;1.10;;;31.70;43.00;;;;;;5015298;28;20184;-74
2022/06/24 12:38:04;;;;;;;3.38;1.10;;;31.80;43.30;;;;;;5024765;28;20195;-74
2022/06/24 12:40:34;;;;;;;2.28;1.13;;;31.90;42.70;;;;;;5013802;28;20206;-75
2022/06/24 12:43:07;;;;;;;1.45;1.00;;;32.10;43.40;;;;;;5019053;28;20202;-75
2022/06/24 12:45:37;;;;;;;1.25;0.98;;;32.30;43.90;;;;;;5016212;28;20196;-76
2022/06/24 12:51:03;;;;;;;2.03;1.00;;;32.70;43.10;;;;;;5017798;28;20199;-75
2022/06/24 12:53:33;;;;;;;3.53;1.10;;;33.00;43.40;;;;;;5020931;28;20269;-75
2022/06/24 12:56:03;;;;;;;1.60;0.90;;;33.20;43.10;;;;;;5014488;28;20203;-77
2022/06/24 12:58:31;;;;;;;1.80;1.05;;;33.30;42.60;;;;;;5026005;28;20750;-77
2022/06/24 13:01:00;;;;;;;4.60;1.02;;;33.40;42.00;;;;;;5018484;28;20197;-77
2022/06/24 13:03:28;;;;;;;3.55;1.27;;;33.60;41.60;;;;;;5024817;28;20278;-75
2022/06/24 13:05:57;;;;;;;1.83;1.27;;;33.70;41.70;;;;;;5017785;28;20190;-75
2022/06/24 13:08:25;;;;;;;2.72;1.00;;;33.80;41.40;;;;;;5016086;28;20223;-75
2022/06/24 13:10:54;;;;;;;5.22;1.40;;;33.90;41.60;;;;;;5026030;28;20204;-77
2022/06/24 13:13:23;;;;;;;1.40;1.02;;;33.90;41.50;;;;;;5012464;28;20802;-76
2022/06/24 13:15:53;;;;;;;4.13;1.20;;;33.90;41.10;;;;;;5016513;28;20192;-76